createdAt,value
2022-09-24T00:02:26.898Z,13.20
2022-09-24T00:04:56.429Z,13.10
2022-09-24T00:07:24.772Z,13.10
2022-09-24T00:09:52.993Z,13.20
2022-09-24T00:12:21.827Z,13.10
2022-09-24T00:14:50.130Z,13.10
2022-09-24T00:17:18.635Z,13.10
2022-09-24T00:19:46.727Z,13.10
2022-09-24T00:22:16.101Z,13.10
2022-09-24T00:25:02.571Z,13.10
2022-09-24T00:27:30.981Z,13.10
2022-09-24T00:29:59.084Z,13.00
2022-09-24T00:32:27.476Z,13.00
2022-09-24T00:34:55.895Z,13.10
2022-09-24T00:37:26.328Z,13.00
2022-09-24T00:39:54.493Z,12.90
2022-09-24T00:42:22.859Z,12.90
2022-09-24T00:44:57.991Z,12.80
2022-09-24T00:47:35.967Z,12.80
2022-09-24T00:50:15.694Z,12.80
2022-09-24T00:52:52.616Z,12.70
2022-09-24T00:55:25.145Z,12.60
2022-09-24T00:57:58.113Z,12.50
2022-09-24T01:00:27.958Z,12.50
2022-09-24T01:03:02.950Z,12.40
2022-09-24T01:05:31.814Z,12.30
2022-09-24T01:08:01.428Z,12.30
2022-09-24T01:10:51.483Z,12.30
2022-09-24T01:13:43.329Z,12.20
2022-09-24T01:16:24.065Z,12.20
2022-09-24T01:19:09.562Z,12.10
2022-09-24T01:21:47.940Z,12.10
2022-09-24T01:24:48.862Z,12.00
2022-09-24T01:27:23.124Z,12.00
2022-09-24T01:30:07.788Z,12.10
2022-09-24T01:32:42.385Z,12.00
2022-09-24T01:35:21.515Z,12.10
2022-09-24T01:37:57.219Z,12.10
2022-09-24T01:40:28.034Z,12.20
2022-09-24T01:43:01.123Z,12.20
2022-09-24T01:45:32.586Z,12.20
2022-09-24T01:48:02.693Z,12.20
2022-09-24T01:50:40.448Z,12.20
2022-09-24T01:53:17.141Z,12.20
2022-09-24T01:55:52.213Z,12.30
2022-09-24T01:58:29.262Z,12.30
2022-09-24T02:01:09.277Z,12.30
2022-09-24T02:03:44.991Z,12.30
2022-09-24T02:06:22.062Z,12.20
2022-09-24T02:08:50.549Z,12.20
2022-09-24T02:11:22.712Z,12.30
2022-09-24T02:13:58.317Z,12.20
2022-09-24T02:16:32.129Z,12.20
2022-09-24T02:19:07.140Z,12.20
2022-09-24T02:21:39.243Z,12.20
2022-09-24T02:24:15.136Z,12.30
2022-09-24T02:26:44.325Z,12.40
2022-09-24T02:29:14.102Z,12.40
2022-09-24T02:31:49.199Z,12.40
2022-09-24T02:34:26.356Z,12.50
2022-09-24T02:37:00.975Z,12.50
2022-09-24T02:39:29.742Z,12.50
2022-09-24T02:41:59.631Z,12.60
2022-09-24T02:44:28.141Z,12.50
2022-09-24T02:46:58.496Z,12.60
2022-09-24T02:49:27.299Z,12.60
2022-09-24T02:51:55.689Z,12.60
2022-09-24T02:54:25.364Z,12.60
2022-09-24T02:56:54.628Z,12.60
2022-09-24T02:59:23.139Z,12.60
2022-09-24T03:01:51.454Z,12.70
2022-09-24T03:04:21.932Z,12.80
2022-09-24T03:06:50.589Z,12.80
2022-09-24T03:09:18.609Z,12.80
2022-09-24T03:11:47.966Z,12.90
2022-09-24T03:14:16.090Z,12.90
2022-09-24T03:16:44.250Z,12.90
2022-09-24T03:19:12.622Z,12.90
2022-09-24T03:21:42.013Z,12.90
2022-09-24T03:24:11.103Z,12.90
2022-09-24T03:26:39.782Z,12.90
2022-09-24T03:29:08.504Z,12.90
2022-09-24T03:31:35.608Z,13.00
2022-09-24T03:34:04.257Z,13.00
2022-09-24T03:36:32.371Z,13.00
2022-09-24T03:39:02.240Z,13.00
2022-09-24T03:41:30.640Z,12.90
2022-09-24T03:43:58.673Z,12.90
2022-09-24T03:46:28.397Z,12.90
2022-09-24T03:49:00.129Z,12.90
2022-09-24T03:51:29.075Z,12.90
2022-09-24T03:53:57.364Z,12.90
2022-09-24T03:56:27.489Z,12.90
2022-09-24T03:58:55.987Z,12.90
2022-09-24T04:01:24.259Z,12.90
2022-09-24T04:03:52.543Z,12.90
2022-09-24T04:06:25.461Z,12.90
2022-09-24T04:08:55.504Z,12.90
2022-09-24T04:11:25.380Z,12.90
2022-09-24T04:13:54.759Z,12.90
2022-09-24T04:16:23.507Z,12.90
2022-09-24T04:18:51.597Z,12.90
2022-09-24T04:21:19.640Z,12.90
2022-09-24T04:23:47.712Z,12.90
2022-09-24T04:26:16.351Z,12.90
2022-09-24T04:28:44.587Z,12.90
2022-09-24T04:31:14.177Z,12.90
2022-09-24T04:33:42.673Z,12.90
2022-09-24T04:36:11.462Z,12.80
2022-09-24T04:38:39.507Z,12.80
2022-09-24T04:41:08.579Z,12.80
2022-09-24T04:43:37.755Z,12.80
2022-09-24T04:46:09.286Z,12.80
2022-09-24T04:48:39.625Z,12.80
2022-09-24T04:51:09.067Z,12.80
2022-09-24T04:53:38.769Z,12.80
2022-09-24T04:56:12.350Z,12.80
2022-09-24T04:58:41.214Z,12.80
2022-09-24T05:01:09.873Z,12.80
2022-09-24T05:03:39.280Z,12.80
2022-09-24T05:06:08.048Z,12.80
2022-09-24T05:08:36.361Z,12.70
2022-09-24T05:11:04.600Z,12.70
2022-09-24T05:13:32.637Z,12.70
2022-09-24T05:16:01.409Z,12.70
2022-09-24T05:18:30.340Z,12.70
2022-09-24T05:20:59.735Z,12.70
2022-09-24T05:23:27.747Z,12.80
2022-09-24T05:26:13.552Z,12.70
2022-09-24T05:28:42.941Z,12.80
2022-09-24T05:31:11.733Z,12.80
2022-09-24T05:33:40.251Z,12.80
2022-09-24T05:36:09.723Z,12.80
2022-09-24T05:38:41.466Z,12.90
2022-09-24T05:41:11.053Z,12.80
2022-09-24T05:43:39.349Z,12.80
2022-09-24T05:46:07.997Z,12.80
2022-09-24T05:48:36.276Z,12.80
2022-09-24T05:51:05.654Z,12.90
2022-09-24T05:53:35.497Z,12.90
2022-09-24T05:56:04.118Z,12.90
2022-09-24T05:58:32.678Z,13.00
2022-09-24T06:01:01.916Z,13.00
2022-09-24T06:03:31.764Z,13.10
2022-09-24T06:06:02.102Z,13.10
2022-09-24T06:08:33.607Z,13.20
2022-09-24T06:11:06.772Z,13.20
2022-09-24T06:13:35.142Z,13.20
2022-09-24T06:16:04.626Z,13.30
2022-09-24T06:18:35.738Z,13.30
2022-09-24T06:21:05.241Z,13.40
2022-09-24T06:23:33.542Z,13.40
2022-09-24T06:26:04.222Z,13.50
2022-09-24T06:28:32.496Z,13.60
2022-09-24T06:31:02.113Z,13.60
2022-09-24T06:33:30.585Z,13.60
2022-09-24T06:36:02.701Z,13.70
2022-09-24T06:38:32.446Z,13.80
2022-09-24T06:41:05.074Z,13.90
2022-09-24T06:43:34.934Z,13.90
2022-09-24T06:46:03.593Z,14.00
2022-09-24T06:48:32.698Z,14.00
2022-09-24T06:51:00.958Z,14.10
2022-09-24T06:53:29.365Z,14.10
2022-09-24T06:56:03.451Z,14.10
2022-09-24T06:58:32.128Z,14.10
2022-09-24T07:01:03.668Z,14.10
2022-09-24T07:03:34.496Z,14.10
2022-09-24T07:06:06.065Z,14.20
2022-09-24T07:08:35.690Z,14.20
2022-09-24T07:11:06.349Z,14.30
2022-09-24T07:13:34.438Z,14.30
2022-09-24T07:16:03.472Z,14.40
2022-09-24T07:18:32.211Z,14.40
2022-09-24T07:21:00.216Z,14.40
2022-09-24T07:23:28.465Z,14.50
2022-09-24T07:25:58.345Z,14.60
2022-09-24T07:28:28.008Z,14.60
2022-09-24T07:31:00.668Z,14.90
2022-09-24T07:33:32.609Z,14.70
2022-09-24T07:36:00.684Z,14.70
2022-09-24T07:38:29.262Z,14.80
2022-09-24T07:40:59.542Z,14.70
2022-09-24T07:43:29.456Z,14.80
2022-09-24T07:45:58.137Z,14.90
2022-09-24T07:48:26.636Z,14.90
2022-09-24T07:50:54.924Z,14.90
2022-09-24T07:53:23.690Z,14.90
2022-09-24T07:55:52.608Z,14.80
2022-09-24T07:58:20.791Z,14.80
2022-09-24T08:00:50.280Z,14.70
2022-09-24T08:03:18.572Z,14.70
2022-09-24T08:05:47.778Z,14.70
2022-09-24T08:08:15.956Z,14.70
2022-09-24T08:10:45.019Z,14.70
2022-09-24T08:13:14.216Z,14.70
2022-09-24T08:15:42.353Z,14.70
2022-09-24T08:18:11.953Z,14.70
2022-09-24T08:20:40.541Z,14.70
2022-09-24T08:23:10.967Z,14.70
2022-09-24T08:25:39.570Z,14.80
2022-09-24T08:28:10.695Z,14.80
2022-09-24T08:30:40.043Z,14.70
2022-09-24T08:33:08.391Z,14.70
2022-09-24T08:35:40.441Z,14.80
2022-09-24T08:38:09.625Z,14.90
2022-09-24T08:40:46.566Z,14.90
2022-09-24T08:43:41.641Z,15.00
2022-09-24T08:46:37.975Z,15.10
2022-09-24T08:49:14.291Z,15.10
2022-09-24T08:51:59.450Z,15.20
2022-09-24T08:54:32.053Z,15.40
2022-09-24T08:57:07.437Z,15.40
2022-09-24T08:59:37.939Z,15.50
2022-09-24T09:02:30.165Z,15.50
2022-09-24T09:05:17.621Z,15.60
2022-09-24T09:08:02.167Z,15.60
2022-09-24T09:10:37.461Z,15.60
2022-09-24T09:13:12.270Z,15.60
2022-09-24T09:15:47.350Z,15.70
2022-09-24T09:18:23.528Z,15.80
2022-09-24T09:20:51.606Z,15.80
2022-09-24T09:23:32.476Z,15.80
2022-09-24T09:26:01.941Z,15.90
2022-09-24T09:28:32.208Z,16.00
2022-09-24T09:31:19.260Z,16.00
2022-09-24T09:34:09.051Z,16.20
2022-09-24T09:36:56.153Z,16.40
2022-09-24T09:39:40.286Z,16.40
2022-09-24T09:42:27.727Z,16.60
2022-09-24T09:44:56.815Z,16.80
2022-09-24T09:47:41.120Z,16.80
2022-09-24T09:50:24.751Z,16.90
2022-09-24T09:52:53.413Z,16.80
2022-09-24T09:55:26.964Z,16.90
2022-09-24T09:58:09.052Z,17.00
2022-09-24T10:00:38.850Z,17.20
2022-09-24T10:03:07.354Z,17.50
2022-09-24T10:05:36.442Z,17.70
2022-09-24T10:08:04.586Z,17.90
2022-09-24T10:10:34.450Z,18.10
2022-09-24T10:13:11.404Z,18.30
2022-09-24T10:15:51.443Z,18.30
2022-09-24T10:18:31.265Z,18.20
2022-09-24T10:21:04.005Z,18.10
2022-09-24T10:23:40.069Z,18.10
2022-09-24T10:26:11.103Z,18.00
2022-09-24T10:29:05.136Z,17.90
2022-09-24T10:31:38.515Z,17.80
2022-09-24T10:34:24.325Z,17.60
2022-09-24T10:36:54.846Z,17.50
2022-09-24T10:39:24.892Z,17.50
2022-09-24T10:41:56.929Z,17.40
2022-09-24T10:44:35.370Z,17.40
2022-09-24T10:47:26.936Z,17.30
2022-09-24T10:50:28.561Z,17.20
2022-09-24T10:53:04.315Z,17.20
2022-09-24T10:55:47.302Z,17.30
2022-09-24T10:58:47.396Z,17.40
2022-09-24T11:01:23.822Z,17.60
2022-09-24T11:04:38.711Z,17.90
2022-09-24T11:07:40.542Z,18.20
2022-09-24T11:10:27.805Z,18.50
2022-09-24T11:13:15.421Z,18.60
2022-09-24T11:16:10.638Z,18.80
2022-09-24T11:18:57.096Z,19.10
2022-09-24T11:21:44.334Z,19.30
2022-09-24T11:24:39.214Z,19.50
2022-09-24T11:27:38.559Z,19.40
2022-09-24T11:30:14.363Z,19.40
2022-09-24T11:33:02.645Z,19.30
2022-09-24T11:35:59.715Z,19.40
2022-09-24T11:38:53.124Z,19.40
2022-09-24T11:41:40.431Z,19.40
2022-09-24T11:44:44.859Z,19.40
2022-09-24T11:47:34.480Z,19.30
2022-09-24T11:50:30.569Z,19.10
2022-09-24T11:53:07.644Z,19.00
2022-09-24T11:55:48.083Z,19.10
2022-09-24T11:58:23.509Z,18.90
2022-09-24T12:00:56.013Z,19.00
2022-09-24T12:03:31.522Z,19.00
2022-09-24T12:06:08.538Z,18.90
2022-09-24T12:08:43.978Z,18.90
2022-09-24T12:11:22.294Z,19.00
2022-09-24T12:13:58.023Z,19.20
2022-09-24T12:16:33.140Z,19.10
2022-09-24T12:19:10.684Z,19.10
2022-09-24T12:21:43.887Z,19.10
2022-09-24T12:24:20.136Z,19.10
2022-09-24T12:26:51.812Z,19.00
2022-09-24T12:29:59.264Z,19.10
2022-09-24T12:32:58.012Z,19.10
2022-09-24T12:35:49.490Z,19.00
2022-09-24T12:38:25.245Z,19.00
2022-09-24T12:41:30.824Z,18.90
2022-09-24T12:44:09.315Z,18.90
2022-09-24T12:46:45.225Z,18.90
2022-09-24T12:49:30.140Z,18.80
2022-09-24T12:52:02.075Z,18.90
2022-09-24T12:54:34.947Z,18.90
2022-09-24T12:57:10.580Z,19.00
2022-09-24T12:59:54.247Z,19.10
2022-09-24T13:02:25.411Z,19.10
2022-09-24T13:05:18.751Z,19.10
2022-09-24T13:08:00.995Z,19.30
2022-09-24T13:10:34.825Z,19.60
2022-09-24T13:13:17.040Z,20.00
2022-09-24T13:16:03.446Z,20.20
2022-09-24T13:18:36.172Z,20.40
2022-09-24T13:21:08.558Z,20.60
2022-09-24T13:23:49.292Z,20.60
2022-09-24T13:26:35.971Z,20.60
2022-09-24T13:29:07.688Z,20.90
2022-09-24T13:31:49.092Z,21.20
2022-09-24T13:34:24.050Z,21.20
2022-09-24T13:36:59.893Z,21.10
2022-09-24T13:39:38.253Z,20.90
2022-09-24T13:42:19.381Z,20.70
2022-09-24T13:44:53.759Z,20.60
2022-09-24T13:47:33.425Z,20.60
2022-09-24T13:50:14.715Z,20.70
2022-09-24T13:52:49.611Z,20.70
2022-09-24T13:55:25.197Z,20.70
2022-09-24T13:57:56.118Z,20.80
2022-09-24T14:00:27.928Z,20.80
2022-09-24T14:03:04.495Z,20.90
2022-09-24T14:05:37.237Z,20.90
2022-09-24T14:08:09.646Z,20.90
2022-09-24T14:10:40.004Z,20.70
2022-09-24T14:13:19.108Z,20.70
2022-09-24T14:15:56.954Z,21.00
2022-09-24T14:18:27.650Z,21.20
2022-09-24T14:21:04.265Z,21.20
2022-09-24T14:23:40.942Z,21.00
2022-09-24T14:26:16.261Z,20.70
2022-09-24T14:28:46.402Z,20.50
2022-09-24T14:31:14.910Z,20.30
2022-09-24T14:33:43.071Z,20.10
2022-09-24T14:36:15.494Z,20.10
2022-09-24T14:38:58.022Z,20.00
2022-09-24T14:41:32.177Z,20.10
2022-09-24T14:44:08.022Z,20.00
2022-09-24T14:46:48.866Z,20.00
2022-09-24T14:49:23.229Z,20.00
2022-09-24T14:51:57.550Z,19.90
2022-09-24T14:54:35.911Z,19.90
2022-09-24T14:57:12.610Z,19.90
2022-09-24T14:59:42.760Z,20.00
2022-09-24T15:02:21.007Z,20.00
2022-09-24T15:04:54.868Z,20.10
2022-09-24T15:07:27.521Z,20.30
2022-09-24T15:10:00.266Z,20.30
2022-09-24T15:12:33.702Z,20.40
2022-09-24T15:15:08.424Z,20.30
2022-09-24T15:17:38.112Z,20.30
2022-09-24T15:20:07.572Z,20.10
2022-09-24T15:22:36.030Z,20.00
2022-09-24T15:25:05.370Z,19.90
2022-09-24T15:27:38.138Z,19.80
2022-09-24T15:30:11.981Z,19.80
2022-09-24T15:32:40.447Z,19.70
2022-09-24T15:35:09.461Z,19.80
2022-09-24T15:37:41.580Z,19.60
2022-09-24T15:40:22.754Z,19.50
2022-09-24T15:42:52.433Z,19.40
2022-09-24T15:45:25.110Z,19.40
2022-09-24T15:47:54.649Z,19.40
2022-09-24T15:50:24.877Z,19.30
2022-09-24T15:52:58.290Z,19.30
2022-09-24T15:55:26.996Z,19.20
2022-09-24T15:57:55.593Z,19.10
2022-09-24T16:00:26.337Z,18.90
2022-09-24T16:03:22.279Z,18.80
2022-09-24T16:05:51.219Z,18.60
2022-09-24T16:08:19.670Z,18.50
2022-09-24T16:10:49.238Z,18.30
2022-09-24T16:13:18.740Z,18.20
2022-09-24T16:15:49.329Z,18.10
2022-09-24T16:18:18.776Z,18.00
2022-09-24T16:20:47.689Z,17.90
2022-09-24T16:23:17.920Z,17.70
2022-09-24T16:25:57.622Z,17.70
2022-09-24T16:28:27.933Z,17.60
2022-09-24T16:30:59.245Z,17.60
2022-09-24T16:33:27.658Z,17.50
2022-09-24T16:35:55.781Z,17.50
2022-09-24T16:38:24.314Z,17.50
2022-09-24T16:41:01.469Z,17.50
2022-09-24T16:43:29.901Z,17.40
2022-09-24T16:46:04.105Z,17.30
2022-09-24T16:48:32.942Z,17.30
2022-09-24T16:51:06.941Z,17.30
2022-09-24T16:53:35.904Z,17.20
2022-09-24T16:56:08.253Z,17.20
2022-09-24T16:58:37.334Z,17.10
2022-09-24T17:01:09.261Z,17.10
2022-09-24T17:03:38.254Z,17.00
2022-09-24T17:06:08.295Z,17.00
2022-09-24T17:08:55.401Z,16.90
2022-09-24T17:11:24.262Z,16.90
2022-09-24T17:13:52.284Z,16.90
2022-09-24T17:16:22.316Z,16.90
2022-09-24T17:18:50.371Z,16.90
2022-09-24T17:21:19.373Z,16.80
2022-09-24T17:23:47.924Z,16.80
2022-09-24T17:26:20.692Z,16.70
2022-09-24T17:28:53.136Z,16.60
2022-09-24T17:31:26.319Z,16.60
2022-09-24T17:33:58.677Z,16.50
2022-09-24T17:36:30.124Z,16.40
2022-09-24T17:38:59.666Z,16.30
2022-09-24T17:41:29.855Z,16.30
2022-09-24T17:44:01.330Z,16.40
2022-09-24T17:46:35.301Z,16.30
2022-09-24T17:49:04.872Z,16.20
2022-09-24T17:51:37.113Z,16.20
2022-09-24T17:54:08.812Z,16.20
2022-09-24T17:56:39.381Z,16.10
2022-09-24T17:59:09.640Z,16.00
2022-09-24T18:01:43.018Z,15.90
2022-09-24T18:04:14.347Z,15.80
2022-09-24T18:06:46.656Z,15.60
2022-09-24T18:09:17.989Z,15.60
2022-09-24T18:11:49.637Z,15.40
2022-09-24T18:14:21.725Z,15.50
2022-09-24T18:16:52.269Z,15.50
2022-09-24T18:19:21.409Z,15.40
2022-09-24T18:21:49.715Z,15.40
2022-09-24T18:24:18.926Z,15.30
2022-09-24T18:26:51.480Z,15.30
2022-09-24T18:29:21.429Z,15.20
2022-09-24T18:31:51.890Z,15.10
2022-09-24T18:34:20.130Z,15.10
2022-09-24T18:36:48.363Z,15.10
2022-09-24T18:39:23.875Z,15.00
2022-09-24T18:41:54.318Z,15.00
2022-09-24T18:44:22.907Z,15.00
2022-09-24T18:46:52.929Z,15.00
2022-09-24T18:49:21.695Z,14.90
2022-09-24T18:51:52.672Z,14.90
2022-09-24T18:54:20.876Z,14.80
2022-09-24T18:56:49.664Z,14.80
2022-09-24T18:59:20.599Z,14.70
2022-09-24T19:01:50.836Z,14.70
2022-09-24T19:04:21.070Z,14.70
2022-09-24T19:06:49.848Z,14.70
2022-09-24T19:09:20.600Z,14.70
2022-09-24T19:11:50.189Z,14.60
2022-09-24T19:14:19.094Z,14.50
2022-09-24T19:16:48.317Z,14.60
2022-09-24T19:19:16.869Z,14.60
2022-09-24T19:21:46.922Z,14.60
2022-09-24T19:24:14.981Z,14.60
2022-09-24T19:26:43.765Z,14.50
2022-09-24T19:29:12.719Z,14.50
2022-09-24T19:31:45.811Z,14.50
2022-09-24T19:34:15.344Z,14.50
2022-09-24T19:36:45.235Z,14.40
2022-09-24T19:39:18.504Z,14.30
2022-09-24T19:41:47.230Z,14.30
2022-09-24T19:44:15.735Z,14.30
2022-09-24T19:46:44.790Z,14.30
2022-09-24T19:49:14.180Z,14.30
2022-09-24T19:51:42.433Z,14.30
2022-09-24T19:54:12.329Z,14.20
2022-09-24T19:56:42.097Z,14.20
2022-09-24T19:59:13.639Z,14.20
2022-09-24T20:01:42.181Z,14.20
2022-09-24T20:04:10.518Z,14.10
2022-09-24T20:06:40.010Z,14.10
2022-09-24T20:09:09.198Z,13.90
2022-09-24T20:11:37.365Z,14.00
2022-09-24T20:14:09.030Z,14.10
2022-09-24T20:16:40.462Z,14.10
2022-09-24T20:19:09.598Z,14.10
2022-09-24T20:21:38.531Z,14.10
2022-09-24T20:24:09.991Z,14.30
2022-09-24T20:26:56.485Z,14.20
2022-09-24T20:29:26.665Z,14.20
2022-09-24T20:31:56.581Z,14.20
2022-09-24T20:34:28.707Z,14.20
2022-09-24T20:36:58.770Z,14.20
2022-09-24T20:39:27.109Z,14.20
2022-09-24T20:41:55.774Z,14.30
2022-09-24T20:44:26.084Z,14.30
2022-09-24T20:46:54.227Z,14.20
2022-09-24T20:49:24.656Z,14.20
2022-09-24T20:51:57.321Z,14.20
2022-09-24T20:54:28.682Z,14.10
2022-09-24T20:56:57.239Z,14.20
2022-09-24T20:59:27.535Z,14.20
2022-09-24T21:01:56.262Z,14.20
2022-09-24T21:04:25.091Z,14.20
2022-09-24T21:06:54.546Z,14.20
2022-09-24T21:09:23.400Z,14.20
2022-09-24T21:11:53.138Z,14.20
2022-09-24T21:14:23.175Z,14.20
2022-09-24T21:16:55.453Z,14.20
2022-09-24T21:19:24.299Z,14.20
2022-09-24T21:21:53.100Z,14.20
2022-09-24T21:24:25.199Z,14.20
2022-09-24T21:27:00.187Z,14.20
2022-09-24T21:29:28.777Z,14.20
2022-09-24T21:31:58.137Z,14.20
2022-09-24T21:34:29.572Z,14.20
2022-09-24T21:36:57.602Z,14.20
2022-09-24T21:39:28.441Z,14.20
2022-09-24T21:41:59.555Z,14.20
2022-09-24T21:44:31.993Z,14.20
2022-09-24T21:47:01.918Z,14.10
2022-09-24T21:49:30.224Z,14.10
2022-09-24T21:51:59.266Z,14.40
2022-09-24T21:54:27.493Z,14.20
2022-09-24T21:56:56.582Z,14.20
2022-09-24T21:59:42.511Z,14.20
2022-09-24T22:02:12.244Z,14.20
2022-09-24T22:04:40.574Z,14.20
2022-09-24T22:07:09.270Z,14.20
2022-09-24T22:09:39.454Z,14.20
2022-09-24T22:12:08.021Z,14.20
2022-09-24T22:14:36.522Z,14.20
2022-09-24T22:17:05.642Z,14.20
2022-09-24T22:19:35.757Z,14.20
2022-09-24T22:22:03.998Z,14.10
2022-09-24T22:24:32.634Z,14.10
2022-09-24T22:27:00.820Z,14.10
2022-09-24T22:29:29.498Z,14.00
2022-09-24T22:31:57.622Z,14.00
2022-09-24T22:34:43.855Z,14.00
2022-09-24T22:37:13.609Z,13.90
2022-09-24T22:39:41.695Z,13.90
2022-09-24T22:42:10.138Z,13.90
2022-09-24T22:44:38.203Z,13.80
2022-09-24T22:47:06.945Z,13.80
2022-09-24T22:49:37.553Z,13.70
2022-09-24T22:52:05.643Z,13.70
2022-09-24T22:54:35.829Z,13.70
2022-09-24T22:57:04.291Z,13.70
2022-09-24T22:59:32.742Z,13.60
2022-09-24T23:02:01.219Z,13.60
2022-09-24T23:04:29.681Z,13.60
2022-09-24T23:06:58.225Z,13.60
2022-09-24T23:09:26.403Z,13.60
2022-09-24T23:11:57.478Z,13.60
2022-09-24T23:14:25.716Z,13.60
2022-09-24T23:16:54.385Z,13.70
2022-09-24T23:19:23.268Z,13.60
2022-09-24T23:21:51.729Z,13.70
2022-09-24T23:24:21.903Z,13.70
2022-09-24T23:26:51.515Z,13.70
2022-09-24T23:29:20.901Z,13.80
2022-09-24T23:31:49.356Z,13.70
2022-09-24T23:34:17.629Z,13.70
2022-09-24T23:36:46.100Z,13.70
2022-09-24T23:39:15.558Z,13.70
2022-09-24T23:41:44.457Z,13.70
2022-09-24T23:44:13.262Z,13.70
2022-09-24T23:46:43.058Z,13.70
2022-09-24T23:49:11.099Z,13.70
2022-09-24T23:51:40.248Z,13.70
2022-09-24T23:54:08.829Z,13.70
2022-09-24T23:56:37.150Z,13.70
2022-09-24T23:59:05.837Z,13.70
